sensor_id;sensor_type;location;lat;lon;timestamp;temperature;humidity
52058;DHT22;38063;53.210;6.504;2024-01-30T00:02:21;4.70;99.90
52058;DHT22;38063;53.210;6.504;2024-01-30T00:04:46;4.70;99.90
52058;DHT22;38063;53.210;6.504;2024-01-30T00:07:12;4.70;99.90
52058;DHT22;38063;53.210;6.504;2024-01-30T00:09:38;4.70;99.90
52058;DHT22;38063;53.210;6.504;2024-01-30T00:12:07;4.70;99.90
52058;DHT22;38063;53.210;6.504;2024-01-30T00:14:33;4.70;99.90
52058;DHT22;38063;53.210;6.504;2024-01-30T00:16:58;4.60;99.90
52058;DHT22;38063;53.210;6.504;2024-01-30T00:19:24;4.60;99.90
52058;DHT22;38063;53.210;6.504;2024-01-30T00:21:49;4.60;99.90
52058;DHT22;38063;53.210;6.504;2024-01-30T00:24:15;4.70;99.90
52058;DHT22;38063;53.210;6.504;2024-01-30T00:26:41;4.60;99.90
52058;DHT22;38063;53.210;6.504;2024-01-30T00:29:06;4.60;99.90
52058;DHT22;38063;53.210;6.504;2024-01-30T00:31:32;4.70;99.90
52058;DHT22;38063;53.210;6.504;2024-01-30T00:33:58;4.70;99.90
52058;DHT22;38063;53.210;6.504;2024-01-30T00:36:23;4.70;99.90
52058;DHT22;38063;53.210;6.504;2024-01-30T00:38:49;4.70;99.90
52058;DHT22;38063;53.210;6.504;2024-01-30T00:41:17;4.70;99.90
52058;DHT22;38063;53.210;6.504;2024-01-30T00:43:43;4.70;99.90
52058;DHT22;38063;53.210;6.504;2024-01-30T00:46:08;4.70;99.90
52058;DHT22;38063;53.210;6.504;2024-01-30T00:48:34;4.70;99.90
52058;DHT22;38063;53.210;6.504;2024-01-30T00:51:00;4.70;99.90
52058;DHT22;38063;53.210;6.504;2024-01-30T00:53:26;4.60;99.90
52058;DHT22;38063;53.210;6.504;2024-01-30T00:55:52;4.60;99.90
52058;DHT22;38063;53.210;6.504;2024-01-30T00:58:18;4.70;99.90
52058;DHT22;38063;53.210;6.504;2024-01-30T01:00:44;4.60;99.90
52058;DHT22;38063;53.210;6.504;2024-01-30T01:03:10;4.70;99.90
52058;DHT22;38063;53.210;6.504;2024-01-30T01:05:36;4.70;99.90
52058;DHT22;38063;53.210;6.504;2024-01-30T01:08:01;4.70;99.90
52058;DHT22;38063;53.210;6.504;2024-01-30T01:10:27;4.70;99.90
52058;DHT22;38063;53.210;6.504;2024-01-30T01:12:53;4.80;99.90
52058;DHT22;38063;53.210;6.504;2024-01-30T01:15:19;4.80;99.90
52058;DHT22;38063;53.210;6.504;2024-01-30T01:17:44;4.80;99.90
52058;DHT22;38063;53.210;6.504;2024-01-30T01:20:10;4.80;99.90
52058;DHT22;38063;53.210;6.504;2024-01-30T01:22:37;5.40;99.90
52058;DHT22;38063;53.210;6.504;2024-01-30T01:25:04;4.80;99.90
52058;DHT22;38063;53.210;6.504;2024-01-30T01:27:32;4.80;99.90
52058;DHT22;38063;53.210;6.504;2024-01-30T01:29:59;4.80;99.90
52058;DHT22;38063;53.210;6.504;2024-01-30T01:32:25;4.80;99.90
52058;DHT22;38063;53.210;6.504;2024-01-30T01:34:51;4.70;99.90
52058;DHT22;38063;53.210;6.504;2024-01-30T01:37:17;4.70;99.90
52058;DHT22;38063;53.210;6.504;2024-01-30T01:39:42;4.70;99.90
52058;DHT22;38063;53.210;6.504;2024-01-30T01:42:08;4.70;99.90
52058;DHT22;38063;53.210;6.504;2024-01-30T01:44:33;4.70;99.90
52058;DHT22;38063;53.210;6.504;2024-01-30T01:46:59;4.70;99.90
52058;DHT22;38063;53.210;6.504;2024-01-30T01:49:27;4.70;99.90
52058;DHT22;38063;53.210;6.504;2024-01-30T01:51:55;4.80;99.90
52058;DHT22;38063;53.210;6.504;2024-01-30T01:54:25;4.70;99.90
52058;DHT22;38063;53.210;6.504;2024-01-30T01:56:52;4.70;99.90
52058;DHT22;38063;53.210;6.504;2024-01-30T01:59:19;4.70;99.90
52058;DHT22;38063;53.210;6.504;2024-01-30T02:01:45;4.70;99.90
52058;DHT22;38063;53.210;6.504;2024-01-30T02:04:14;4.70;99.90
52058;DHT22;38063;53.210;6.504;2024-01-30T02:06:40;4.70;99.90
52058;DHT22;38063;53.210;6.504;2024-01-30T02:09:06;4.70;99.90
52058;DHT22;38063;53.210;6.504;2024-01-30T02:11:32;4.70;99.90
52058;DHT22;38063;53.210;6.504;2024-01-30T02:14:03;4.70;99.90
52058;DHT22;38063;53.210;6.504;2024-01-30T02:16:29;4.70;99.90
52058;DHT22;38063;53.210;6.504;2024-01-30T02:18:55;4.60;99.90
52058;DHT22;38063;53.210;6.504;2024-01-30T02:21:21;4.60;99.90
52058;DHT22;38063;53.210;6.504;2024-01-30T02:23:47;4.60;99.90
52058;DHT22;38063;53.210;6.504;2024-01-30T02:26:13;4.60;99.90
52058;DHT22;38063;53.210;6.504;2024-01-30T02:28:39;4.60;99.90
52058;DHT22;38063;53.210;6.504;2024-01-30T02:31:05;4.70;99.90
52058;DHT22;38063;53.210;6.504;2024-01-30T02:33:31;4.70;99.90
52058;DHT22;38063;53.210;6.504;2024-01-30T02:35:56;5.20;99.90
52058;DHT22;38063;53.210;6.504;2024-01-30T02:38:22;4.70;99.90
52058;DHT22;38063;53.210;6.504;2024-01-30T02:40:49;4.70;99.90
52058;DHT22;38063;53.210;6.504;2024-01-30T02:43:16;4.70;99.90
52058;DHT22;38063;53.210;6.504;2024-01-30T02:45:42;4.80;99.90
52058;DHT22;38063;53.210;6.504;2024-01-30T02:48:08;4.70;99.90
52058;DHT22;38063;53.210;6.504;2024-01-30T02:50:34;4.70;99.90
52058;DHT22;38063;53.210;6.504;2024-01-30T02:52:59;4.70;99.90
52058;DHT22;38063;53.210;6.504;2024-01-30T02:55:25;4.70;99.90
52058;DHT22;38063;53.210;6.504;2024-01-30T02:57:51;4.80;99.90
52058;DHT22;38063;53.210;6.504;2024-01-30T03:00:17;4.70;99.90
52058;DHT22;38063;53.210;6.504;2024-01-30T03:02:42;4.80;99.90
52058;DHT22;38063;53.210;6.504;2024-01-30T03:05:08;4.80;99.90
52058;DHT22;38063;53.210;6.504;2024-01-30T03:07:34;4.80;99.90
52058;DHT22;38063;53.210;6.504;2024-01-30T03:10:00;4.80;99.90
52058;DHT22;38063;53.210;6.504;2024-01-30T03:12:26;4.70;99.90
52058;DHT22;38063;53.210;6.504;2024-01-30T03:14:51;4.80;99.90
52058;DHT22;38063;53.210;6.504;2024-01-30T03:17:18;4.80;99.90
52058;DHT22;38063;53.210;6.504;2024-01-30T03:19:43;4.80;99.90
52058;DHT22;38063;53.210;6.504;2024-01-30T03:22:09;4.80;99.90
52058;DHT22;38063;53.210;6.504;2024-01-30T03:24:34;4.80;99.90
52058;DHT22;38063;53.210;6.504;2024-01-30T03:27:00;4.80;99.90
52058;DHT22;38063;53.210;6.504;2024-01-30T03:29:26;4.80;99.90
52058;DHT22;38063;53.210;6.504;2024-01-30T03:31:52;4.80;99.90
52058;DHT22;38063;53.210;6.504;2024-01-30T03:34:18;4.80;99.90
52058;DHT22;38063;53.210;6.504;2024-01-30T03:36:43;4.70;99.90
52058;DHT22;38063;53.210;6.504;2024-01-30T03:39:09;5.60;99.90
52058;DHT22;38063;53.210;6.504;2024-01-30T03:41:35;4.80;99.90
52058;DHT22;38063;53.210;6.504;2024-01-30T03:44:00;4.80;99.90
52058;DHT22;38063;53.210;6.504;2024-01-30T03:46:26;4.80;99.90
52058;DHT22;38063;53.210;6.504;2024-01-30T03:48:51;5.30;99.90
52058;DHT22;38063;53.210;6.504;2024-01-30T03:51:17;4.80;99.90
52058;DHT22;38063;53.210;6.504;2024-01-30T03:53:43;4.90;99.90
52058;DHT22;38063;53.210;6.504;2024-01-30T03:56:09;4.80;99.90
52058;DHT22;38063;53.210;6.504;2024-01-30T03:58:35;4.90;99.90
52058;DHT22;38063;53.210;6.504;2024-01-30T04:01:01;4.90;99.90
52058;DHT22;38063;53.210;6.504;2024-01-30T04:03:26;4.80;99.90
52058;DHT22;38063;53.210;6.504;2024-01-30T04:05:52;5.00;99.90
52058;DHT22;38063;53.210;6.504;2024-01-30T04:08:18;4.90;99.90
52058;DHT22;38063;53.210;6.504;2024-01-30T04:10:44;4.90;99.90
52058;DHT22;38063;53.210;6.504;2024-01-30T04:13:10;4.90;99.90
52058;DHT22;38063;53.210;6.504;2024-01-30T04:15:35;5.00;99.90
52058;DHT22;38063;53.210;6.504;2024-01-30T04:18:01;5.00;99.90
52058;DHT22;38063;53.210;6.504;2024-01-30T04:20:27;5.00;99.90
52058;DHT22;38063;53.210;6.504;2024-01-30T04:22:53;5.10;99.90
52058;DHT22;38063;53.210;6.504;2024-01-30T04:25:18;5.10;99.90
52058;DHT22;38063;53.210;6.504;2024-01-30T04:27:44;5.10;99.90
52058;DHT22;38063;53.210;6.504;2024-01-30T04:30:10;5.30;99.90
52058;DHT22;38063;53.210;6.504;2024-01-30T04:32:36;5.20;99.90
52058;DHT22;38063;53.210;6.504;2024-01-30T04:35:02;5.70;99.90
52058;DHT22;38063;53.210;6.504;2024-01-30T04:37:28;5.20;99.90
52058;DHT22;38063;53.210;6.504;2024-01-30T04:39:54;5.20;99.90
52058;DHT22;38063;53.210;6.504;2024-01-30T04:42:19;5.20;99.90
52058;DHT22;38063;53.210;6.504;2024-01-30T04:44:45;5.30;99.90
52058;DHT22;38063;53.210;6.504;2024-01-30T04:47:11;5.30;99.90
52058;DHT22;38063;53.210;6.504;2024-01-30T04:49:39;6.10;99.90
52058;DHT22;38063;53.210;6.504;2024-01-30T04:52:06;5.30;99.90
52058;DHT22;38063;53.210;6.504;2024-01-30T04:54:32;5.40;99.90
52058;DHT22;38063;53.210;6.504;2024-01-30T04:56:57;5.40;99.90
52058;DHT22;38063;53.210;6.504;2024-01-30T04:59:24;5.40;99.90
52058;DHT22;38063;53.210;6.504;2024-01-30T05:01:49;5.50;99.90
52058;DHT22;38063;53.210;6.504;2024-01-30T05:04:15;5.70;99.90
52058;DHT22;38063;53.210;6.504;2024-01-30T05:06:41;5.50;99.90
52058;DHT22;38063;53.210;6.504;2024-01-30T05:09:06;5.50;99.90
52058;DHT22;38063;53.210;6.504;2024-01-30T05:11:37;5.60;99.90
52058;DHT22;38063;53.210;6.504;2024-01-30T05:14:03;5.60;99.90
52058;DHT22;38063;53.210;6.504;2024-01-30T05:16:29;5.60;99.90
52058;DHT22;38063;53.210;6.504;2024-01-30T05:18:55;5.60;99.90
52058;DHT22;38063;53.210;6.504;2024-01-30T05:21:20;5.60;99.90
52058;DHT22;38063;53.210;6.504;2024-01-30T05:23:46;5.60;99.90
52058;DHT22;38063;53.210;6.504;2024-01-30T05:26:11;5.70;99.90
52058;DHT22;38063;53.210;6.504;2024-01-30T05:28:37;5.90;99.90
52058;DHT22;38063;53.210;6.504;2024-01-30T05:31:03;5.80;99.90
52058;DHT22;38063;53.210;6.504;2024-01-30T05:33:29;5.80;99.90
52058;DHT22;38063;53.210;6.504;2024-01-30T05:35:54;5.80;99.90
52058;DHT22;38063;53.210;6.504;2024-01-30T05:38:20;5.80;99.90
52058;DHT22;38063;53.210;6.504;2024-01-30T05:40:46;5.80;99.90
52058;DHT22;38063;53.210;6.504;2024-01-30T05:43:12;5.90;99.90
52058;DHT22;38063;53.210;6.504;2024-01-30T05:45:38;5.90;99.90
52058;DHT22;38063;53.210;6.504;2024-01-30T05:48:04;5.80;99.90
52058;DHT22;38063;53.210;6.504;2024-01-30T05:50:30;5.80;99.90
52058;DHT22;38063;53.210;6.504;2024-01-30T05:52:55;5.80;99.90
52058;DHT22;38063;53.210;6.504;2024-01-30T05:55:21;6.30;99.90
52058;DHT22;38063;53.210;6.504;2024-01-30T05:57:47;6.40;99.90
52058;DHT22;38063;53.210;6.504;2024-01-30T06:00:13;5.90;99.90
52058;DHT22;38063;53.210;6.504;2024-01-30T06:02:39;5.80;99.90
52058;DHT22;38063;53.210;6.504;2024-01-30T06:05:05;5.90;99.90
52058;DHT22;38063;53.210;6.504;2024-01-30T06:07:31;5.80;99.90
52058;DHT22;38063;53.210;6.504;2024-01-30T06:09:56;5.80;99.90
52058;DHT22;38063;53.210;6.504;2024-01-30T06:12:22;5.80;99.90
52058;DHT22;38063;53.210;6.504;2024-01-30T06:14:47;5.80;99.90
52058;DHT22;38063;53.210;6.504;2024-01-30T06:17:13;5.90;99.90
52058;DHT22;38063;53.210;6.504;2024-01-30T06:19:39;5.80;99.90
52058;DHT22;38063;53.210;6.504;2024-01-30T06:22:05;5.90;99.90
52058;DHT22;38063;53.210;6.504;2024-01-30T06:24:31;5.90;99.90
52058;DHT22;38063;53.210;6.504;2024-01-30T06:26:56;5.90;99.90
52058;DHT22;38063;53.210;6.504;2024-01-30T06:29:22;6.00;99.90
52058;DHT22;38063;53.210;6.504;2024-01-30T06:31:50;5.90;99.90
52058;DHT22;38063;53.210;6.504;2024-01-30T06:34:15;6.00;99.90
52058;DHT22;38063;53.210;6.504;2024-01-30T06:36:41;6.00;99.90
52058;DHT22;38063;53.210;6.504;2024-01-30T06:39:07;6.10;99.90
52058;DHT22;38063;53.210;6.504;2024-01-30T06:41:33;6.00;99.90
52058;DHT22;38063;53.210;6.504;2024-01-30T06:43:59;7.00;99.90
52058;DHT22;38063;53.210;6.504;2024-01-30T06:46:24;6.10;99.90
52058;DHT22;38063;53.210;6.504;2024-01-30T06:48:50;7.10;99.90
52058;DHT22;38063;53.210;6.504;2024-01-30T06:51:16;6.10;99.90
52058;DHT22;38063;53.210;6.504;2024-01-30T06:53:41;6.10;99.90
52058;DHT22;38063;53.210;6.504;2024-01-30T06:56:08;6.10;99.90
52058;DHT22;38063;53.210;6.504;2024-01-30T06:58:33;6.20;99.90
52058;DHT22;38063;53.210;6.504;2024-01-30T07:00:59;6.10;99.90
52058;DHT22;38063;53.210;6.504;2024-01-30T07:03:24;6.20;99.90
52058;DHT22;38063;53.210;6.504;2024-01-30T07:05:50;6.20;99.90
52058;DHT22;38063;53.210;6.504;2024-01-30T07:08:17;6.20;99.90
52058;DHT22;38063;53.210;6.504;2024-01-30T07:10:43;6.20;99.90
52058;DHT22;38063;53.210;6.504;2024-01-30T07:13:12;6.60;99.90
52058;DHT22;38063;53.210;6.504;2024-01-30T07:15:38;6.20;99.90
52058;DHT22;38063;53.210;6.504;2024-01-30T07:18:04;6.30;99.90
52058;DHT22;38063;53.210;6.504;2024-01-30T07:20:30;6.30;99.90
52058;DHT22;38063;53.210;6.504;2024-01-30T07:22:58;6.30;99.90
52058;DHT22;38063;53.210;6.504;2024-01-30T07:25:23;6.30;99.90
52058;DHT22;38063;53.210;6.504;2024-01-30T07:27:52;6.30;99.90
52058;DHT22;38063;53.210;6.504;2024-01-30T07:30:19;6.30;99.90
52058;DHT22;38063;53.210;6.504;2024-01-30T07:32:45;6.30;99.90
52058;DHT22;38063;53.210;6.504;2024-01-30T07:35:11;6.30;99.90
52058;DHT22;38063;53.210;6.504;2024-01-30T07:37:36;6.30;99.90
52058;DHT22;38063;53.210;6.504;2024-01-30T07:40:03;6.40;99.90
52058;DHT22;38063;53.210;6.504;2024-01-30T07:42:29;6.40;99.90
52058;DHT22;38063;53.210;6.504;2024-01-30T07:44:54;6.40;99.90
52058;DHT22;38063;53.210;6.504;2024-01-30T07:47:20;6.50;99.90
52058;DHT22;38063;53.210;6.504;2024-01-30T07:49:45;6.50;99.90
52058;DHT22;38063;53.210;6.504;2024-01-30T07:52:11;6.50;99.90
52058;DHT22;38063;53.210;6.504;2024-01-30T07:54:50;6.50;99.90
52058;DHT22;38063;53.210;6.504;2024-01-30T07:57:16;6.60;99.90
52058;DHT22;38063;53.210;6.504;2024-01-30T07:59:45;6.60;99.90
52058;DHT22;38063;53.210;6.504;2024-01-30T08:02:14;6.60;99.90
52058;DHT22;38063;53.210;6.504;2024-01-30T08:04:40;6.60;99.90
52058;DHT22;38063;53.210;6.504;2024-01-30T08:07:06;6.60;99.90
52058;DHT22;38063;53.210;6.504;2024-01-30T08:09:31;6.60;99.90
52058;DHT22;38063;53.210;6.504;2024-01-30T08:11:57;6.70;99.90
52058;DHT22;38063;53.210;6.504;2024-01-30T08:14:22;6.70;99.90
52058;DHT22;38063;53.210;6.504;2024-01-30T08:16:48;6.70;99.90
52058;DHT22;38063;53.210;6.504;2024-01-30T08:19:17;7.30;99.90
52058;DHT22;38063;53.210;6.504;2024-01-30T08:21:43;6.70;99.90
52058;DHT22;38063;53.210;6.504;2024-01-30T08:24:08;6.80;99.90
52058;DHT22;38063;53.210;6.504;2024-01-30T08:26:34;6.80;99.90
52058;DHT22;38063;53.210;6.504;2024-01-30T08:29:01;6.80;99.90
52058;DHT22;38063;53.210;6.504;2024-01-30T08:31:27;6.80;99.90
52058;DHT22;38063;53.210;6.504;2024-01-30T08:33:52;7.20;99.90
52058;DHT22;38063;53.210;6.504;2024-01-30T08:36:18;6.90;99.90
52058;DHT22;38063;53.210;6.504;2024-01-30T08:38:44;6.90;99.90
52058;DHT22;38063;53.210;6.504;2024-01-30T08:41:10;6.90;99.90
52058;DHT22;38063;53.210;6.504;2024-01-30T08:43:36;7.00;99.90
52058;DHT22;38063;53.210;6.504;2024-01-30T08:46:02;7.00;99.90
52058;DHT22;38063;53.210;6.504;2024-01-30T08:48:29;7.00;99.90
52058;DHT22;38063;53.210;6.504;2024-01-30T08:50:55;7.00;99.90
52058;DHT22;38063;53.210;6.504;2024-01-30T08:53:20;7.00;99.90
52058;DHT22;38063;53.210;6.504;2024-01-30T08:55:46;7.10;99.90
52058;DHT22;38063;53.210;6.504;2024-01-30T08:58:12;7.20;99.90
52058;DHT22;38063;53.210;6.504;2024-01-30T09:00:38;7.20;99.90
52058;DHT22;38063;53.210;6.504;2024-01-30T09:03:04;7.30;99.90
52058;DHT22;38063;53.210;6.504;2024-01-30T09:05:29;7.30;99.90
52058;DHT22;38063;53.210;6.504;2024-01-30T09:07:55;7.30;99.90
52058;DHT22;38063;53.210;6.504;2024-01-30T09:10:21;7.30;99.90
52058;DHT22;38063;53.210;6.504;2024-01-30T09:12:47;7.40;99.90
52058;DHT22;38063;53.210;6.504;2024-01-30T09:15:13;7.40;99.90
52058;DHT22;38063;53.210;6.504;2024-01-30T09:17:39;7.40;99.90
52058;DHT22;38063;53.210;6.504;2024-01-30T09:20:05;7.50;99.90
52058;DHT22;38063;53.210;6.504;2024-01-30T09:22:31;7.50;99.90
52058;DHT22;38063;53.210;6.504;2024-01-30T09:24:57;7.50;99.90
52058;DHT22;38063;53.210;6.504;2024-01-30T09:27:23;7.60;99.90
52058;DHT22;38063;53.210;6.504;2024-01-30T09:29:48;7.90;99.90
52058;DHT22;38063;53.210;6.504;2024-01-30T09:32:14;7.80;99.90
52058;DHT22;38063;53.210;6.504;2024-01-30T09:34:40;8.00;99.90
52058;DHT22;38063;53.210;6.504;2024-01-30T09:37:07;8.00;99.90
52058;DHT22;38063;53.210;6.504;2024-01-30T09:39:32;8.10;99.90
52058;DHT22;38063;53.210;6.504;2024-01-30T09:42:26;8.20;99.90
52058;DHT22;38063;53.210;6.504;2024-01-30T09:44:53;8.30;99.90
52058;DHT22;38063;53.210;6.504;2024-01-30T09:47:19;8.40;99.90
52058;DHT22;38063;53.210;6.504;2024-01-30T09:49:44;8.50;99.90
52058;DHT22;38063;53.210;6.504;2024-01-30T09:52:11;8.60;99.90
52058;DHT22;38063;53.210;6.504;2024-01-30T09:54:38;8.60;99.90
52058;DHT22;38063;53.210;6.504;2024-01-30T09:57:04;8.70;99.90
52058;DHT22;38063;53.210;6.504;2024-01-30T09:59:31;8.70;99.90
52058;DHT22;38063;53.210;6.504;2024-01-30T10:01:57;8.80;99.90
52058;DHT22;38063;53.210;6.504;2024-01-30T10:04:23;9.00;99.90
52058;DHT22;38063;53.210;6.504;2024-01-30T10:06:49;8.90;99.90
52058;DHT22;38063;53.210;6.504;2024-01-30T10:09:16;9.00;99.90
52058;DHT22;38063;53.210;6.504;2024-01-30T10:11:41;9.00;99.90
52058;DHT22;38063;53.210;6.504;2024-01-30T10:14:07;9.00;99.90
52058;DHT22;38063;53.210;6.504;2024-01-30T10:16:34;9.10;99.90
52058;DHT22;38063;53.210;6.504;2024-01-30T10:19:00;9.10;99.90
52058;DHT22;38063;53.210;6.504;2024-01-30T10:21:25;9.20;99.90
52058;DHT22;38063;53.210;6.504;2024-01-30T10:23:51;9.20;99.90
52058;DHT22;38063;53.210;6.504;2024-01-30T10:26:17;9.40;99.90
52058;DHT22;38063;53.210;6.504;2024-01-30T10:28:43;9.30;99.90
52058;DHT22;38063;53.210;6.504;2024-01-30T10:31:09;9.30;99.90
52058;DHT22;38063;53.210;6.504;2024-01-30T10:33:34;9.30;99.90
52058;DHT22;38063;53.210;6.504;2024-01-30T10:36:02;9.30;99.90
52058;DHT22;38063;53.210;6.504;2024-01-30T10:38:29;9.30;99.90
52058;DHT22;38063;53.210;6.504;2024-01-30T10:40:59;9.30;99.90
52058;DHT22;38063;53.210;6.504;2024-01-30T10:43:47;9.70;99.90
52058;DHT22;38063;53.210;6.504;2024-01-30T10:46:19;9.30;99.90
52058;DHT22;38063;53.210;6.504;2024-01-30T10:48:51;9.70;99.90
52058;DHT22;38063;53.210;6.504;2024-01-30T10:51:22;10.20;99.90
52058;DHT22;38063;53.210;6.504;2024-01-30T10:53:49;9.80;99.90
52058;DHT22;38063;53.210;6.504;2024-01-30T10:56:16;9.50;99.90
52058;DHT22;38063;53.210;6.504;2024-01-30T10:58:42;9.50;99.90
52058;DHT22;38063;53.210;6.504;2024-01-30T11:01:09;9.50;99.90
52058;DHT22;38063;53.210;6.504;2024-01-30T11:03:35;9.50;99.90
52058;DHT22;38063;53.210;6.504;2024-01-30T11:06:02;9.50;99.90
52058;DHT22;38063;53.210;6.504;2024-01-30T11:08:31;9.50;99.90
52058;DHT22;38063;53.210;6.504;2024-01-30T11:10:58;9.50;99.90
52058;DHT22;38063;53.210;6.504;2024-01-30T11:13:30;9.60;99.90
52058;DHT22;38063;53.210;6.504;2024-01-30T11:16:03;9.60;99.90
52058;DHT22;38063;53.210;6.504;2024-01-30T11:18:30;9.60;99.90
52058;DHT22;38063;53.210;6.504;2024-01-30T11:20:56;9.60;99.90
52058;DHT22;38063;53.210;6.504;2024-01-30T11:23:23;9.70;99.90
52058;DHT22;38063;53.210;6.504;2024-01-30T11:25:49;9.60;99.90
52058;DHT22;38063;53.210;6.504;2024-01-30T11:28:18;9.60;99.90
52058;DHT22;38063;53.210;6.504;2024-01-30T11:30:44;9.70;99.90
52058;DHT22;38063;53.210;6.504;2024-01-30T11:33:13;9.70;99.90
52058;DHT22;38063;53.210;6.504;2024-01-30T11:35:42;9.80;99.90
52058;DHT22;38063;53.210;6.504;2024-01-30T11:38:10;9.70;99.90
52058;DHT22;38063;53.210;6.504;2024-01-30T11:40:37;9.60;99.90
52058;DHT22;38063;53.210;6.504;2024-01-30T11:43:08;9.70;99.90
52058;DHT22;38063;53.210;6.504;2024-01-30T11:45:35;9.70;99.90
52058;DHT22;38063;53.210;6.504;2024-01-30T11:48:01;9.60;99.90
52058;DHT22;38063;53.210;6.504;2024-01-30T11:50:33;9.60;99.90
52058;DHT22;38063;53.210;6.504;2024-01-30T11:53:02;9.60;99.90
52058;DHT22;38063;53.210;6.504;2024-01-30T11:55:29;9.60;99.90
52058;DHT22;38063;53.210;6.504;2024-01-30T11:57:59;9.80;99.90
52058;DHT22;38063;53.210;6.504;2024-01-30T12:00:25;9.60;99.90
52058;DHT22;38063;53.210;6.504;2024-01-30T12:02:53;10.20;99.90
52058;DHT22;38063;53.210;6.504;2024-01-30T12:05:28;9.60;99.90
52058;DHT22;38063;53.210;6.504;2024-01-30T12:07:53;9.90;99.90
52058;DHT22;38063;53.210;6.504;2024-01-30T12:10:20;10.00;99.90
52058;DHT22;38063;53.210;6.504;2024-01-30T12:12:47;9.50;99.90
52058;DHT22;38063;53.210;6.504;2024-01-30T12:15:13;9.40;99.90
52058;DHT22;38063;53.210;6.504;2024-01-30T12:17:40;9.40;99.90
52058;DHT22;38063;53.210;6.504;2024-01-30T12:22:40;9.30;99.90
52058;DHT22;38063;53.210;6.504;2024-01-30T12:25:10;9.70;99.90
52058;DHT22;38063;53.210;6.504;2024-01-30T12:27:37;9.30;99.90
52058;DHT22;38063;53.210;6.504;2024-01-30T12:30:07;9.40;99.90
52058;DHT22;38063;53.210;6.504;2024-01-30T12:32:36;9.30;99.90
52058;DHT22;38063;53.210;6.504;2024-01-30T12:35:03;9.30;99.90
52058;DHT22;38063;53.210;6.504;2024-01-30T12:37:30;9.20;99.90
52058;DHT22;38063;53.210;6.504;2024-01-30T12:39:57;9.30;99.90
52058;DHT22;38063;53.210;6.504;2024-01-30T12:42:22;9.20;99.90
52058;DHT22;38063;53.210;6.504;2024-01-30T12:44:49;9.20;99.90
52058;DHT22;38063;53.210;6.504;2024-01-30T12:47:15;9.20;99.90
52058;DHT22;38063;53.210;6.504;2024-01-30T12:49:44;9.20;99.90
52058;DHT22;38063;53.210;6.504;2024-01-30T12:52:20;9.20;99.90
52058;DHT22;38063;53.210;6.504;2024-01-30T12:54:49;9.20;99.90
52058;DHT22;38063;53.210;6.504;2024-01-30T12:57:15;9.30;99.90
52058;DHT22;38063;53.210;6.504;2024-01-30T12:59:42;9.30;99.90
52058;DHT22;38063;53.210;6.504;2024-01-30T13:02:07;9.40;99.90
52058;DHT22;38063;53.210;6.504;2024-01-30T13:04:34;9.30;99.90
52058;DHT22;38063;53.210;6.504;2024-01-30T13:06:59;9.40;99.90
52058;DHT22;38063;53.210;6.504;2024-01-30T13:09:26;9.40;99.90
52058;DHT22;38063;53.210;6.504;2024-01-30T13:11:52;9.40;99.90
52058;DHT22;38063;53.210;6.504;2024-01-30T13:14:18;9.40;99.90
52058;DHT22;38063;53.210;6.504;2024-01-30T13:16:44;9.40;99.90
52058;DHT22;38063;53.210;6.504;2024-01-30T13:19:10;9.40;99.90
52058;DHT22;38063;53.210;6.504;2024-01-30T13:21:36;9.30;99.90
52058;DHT22;38063;53.210;6.504;2024-01-30T13:24:02;9.30;99.90
52058;DHT22;38063;53.210;6.504;2024-01-30T13:26:27;9.30;99.90
52058;DHT22;38063;53.210;6.504;2024-01-30T13:28:53;9.30;99.90
52058;DHT22;38063;53.210;6.504;2024-01-30T13:31:19;9.40;99.90
52058;DHT22;38063;53.210;6.504;2024-01-30T13:33:45;9.20;99.90
52058;DHT22;38063;53.210;6.504;2024-01-30T13:36:11;9.20;99.90
52058;DHT22;38063;53.210;6.504;2024-01-30T13:38:38;9.20;99.90
52058;DHT22;38063;53.210;6.504;2024-01-30T13:41:04;9.20;99.90
52058;DHT22;38063;53.210;6.504;2024-01-30T13:43:30;9.10;99.90
52058;DHT22;38063;53.210;6.504;2024-01-30T13:45:56;9.30;99.90
52058;DHT22;38063;53.210;6.504;2024-01-30T13:48:22;9.10;99.90
52058;DHT22;38063;53.210;6.504;2024-01-30T13:50:48;9.60;99.90
52058;DHT22;38063;53.210;6.504;2024-01-30T13:53:14;9.10;99.90
52058;DHT22;38063;53.210;6.504;2024-01-30T13:55:39;9.10;99.90
52058;DHT22;38063;53.210;6.504;2024-01-30T13:58:06;9.10;99.90
52058;DHT22;38063;53.210;6.504;2024-01-30T14:00:32;9.00;99.90
52058;DHT22;38063;53.210;6.504;2024-01-30T14:02:57;9.00;99.90
52058;DHT22;38063;53.210;6.504;2024-01-30T14:05:24;9.00;99.90
52058;DHT22;38063;53.210;6.504;2024-01-30T14:07:54;9.00;99.90
52058;DHT22;38063;53.210;6.504;2024-01-30T14:10:20;9.00;99.90
52058;DHT22;38063;53.210;6.504;2024-01-30T14:12:46;8.90;99.90
52058;DHT22;38063;53.210;6.504;2024-01-30T14:15:14;8.90;99.90
52058;DHT22;38063;53.210;6.504;2024-01-30T14:17:40;8.90;99.90
52058;DHT22;38063;53.210;6.504;2024-01-30T14:20:07;8.90;99.90
52058;DHT22;38063;53.210;6.504;2024-01-30T14:22:36;8.90;99.90
52058;DHT22;38063;53.210;6.504;2024-01-30T14:25:02;8.80;99.90
52058;DHT22;38063;53.210;6.504;2024-01-30T14:27:31;8.80;99.90
52058;DHT22;38063;53.210;6.504;2024-01-30T14:29:57;8.70;99.90
52058;DHT22;38063;53.210;6.504;2024-01-30T14:32:24;8.70;99.90
52058;DHT22;38063;53.210;6.504;2024-01-30T14:34:53;8.70;99.90
52058;DHT22;38063;53.210;6.504;2024-01-30T14:37:20;8.60;99.90
52058;DHT22;38063;53.210;6.504;2024-01-30T14:39:45;8.50;99.90
52058;DHT22;38063;53.210;6.504;2024-01-30T14:42:11;8.50;99.90
52058;DHT22;38063;53.210;6.504;2024-01-30T14:44:37;8.40;99.90
52058;DHT22;38063;53.210;6.504;2024-01-30T14:47:03;8.40;99.90
52058;DHT22;38063;53.210;6.504;2024-01-30T14:49:28;8.30;99.90
52058;DHT22;38063;53.210;6.504;2024-01-30T14:51:54;8.50;99.90
52058;DHT22;38063;53.210;6.504;2024-01-30T14:54:20;8.30;99.90
52058;DHT22;38063;53.210;6.504;2024-01-30T14:56:46;8.20;99.90
52058;DHT22;38063;53.210;6.504;2024-01-30T14:59:11;8.20;99.90
52058;DHT22;38063;53.210;6.504;2024-01-30T15:01:37;8.20;99.90
52058;DHT22;38063;53.210;6.504;2024-01-30T15:04:03;8.10;99.90
52058;DHT22;38063;53.210;6.504;2024-01-30T15:06:29;8.10;99.90
52058;DHT22;38063;53.210;6.504;2024-01-30T15:08:54;8.10;99.90
52058;DHT22;38063;53.210;6.504;2024-01-30T15:11:21;8.10;99.90
52058;DHT22;38063;53.210;6.504;2024-01-30T15:13:46;8.00;99.90
52058;DHT22;38063;53.210;6.504;2024-01-30T15:16:12;8.00;99.90
52058;DHT22;38063;53.210;6.504;2024-01-30T15:18:38;8.00;99.90
52058;DHT22;38063;53.210;6.504;2024-01-30T15:21:04;8.00;99.90
52058;DHT22;38063;53.210;6.504;2024-01-30T15:23:29;8.00;99.90
52058;DHT22;38063;53.210;6.504;2024-01-30T15:25:55;8.00;99.90
52058;DHT22;38063;53.210;6.504;2024-01-30T15:28:36;8.00;99.90
52058;DHT22;38063;53.210;6.504;2024-01-30T15:31:02;8.00;99.90
52058;DHT22;38063;53.210;6.504;2024-01-30T15:33:28;8.00;99.90
52058;DHT22;38063;53.210;6.504;2024-01-30T15:35:54;7.90;99.90
52058;DHT22;38063;53.210;6.504;2024-01-30T15:38:20;8.80;99.90
52058;DHT22;38063;53.210;6.504;2024-01-30T15:40:47;8.00;99.90
52058;DHT22;38063;53.210;6.504;2024-01-30T15:43:12;8.00;99.90